Time;durP1;ratioP1;P1;durP2;ratioP2;P2;SDS_P1;SDS_P2;PMS_P1;PMS_P2;Temp;Humidity;BMP_temperature;BMP_pressure;BME280_temperature;BME280_humidity;BME280_pressure;Samples;Min_cycle;Max_cycle;Signal;HPM_P1;HPM_P2
2022/03/15 00:00:08;;;;;;;18.75;9.77;;;;;;;;;;5051143;28;20059;-73
2022/03/15 00:02:34;;;;;;;20.95;11.98;;;;;;;;;;5052396;28;20048;-73
2022/03/15 00:05:01;;;;;;;15.95;9.20;;;;;;;;;;5053851;28;20169;-74
2022/03/15 00:07:27;;;;;;;12.35;6.10;;;;;;;;;;5061330;28;20037;-74
2022/03/15 00:09:53;;;;;;;10.27;4.65;;;;;;;;;;5060328;28;20040;-74
2022/03/15 00:12:19;;;;;;;10.57;5.28;;;;;;;;;;5045480;28;20028;-74
2022/03/15 00:14:45;;;;;;;10.30;4.90;;;;;;;;;;5043726;28;20033;-73
2022/03/15 00:17:12;;;;;;;9.15;5.22;;;;;;;;;;5055843;28;20108;-74
2022/03/15 00:19:39;;;;;;;9.38;5.38;;;;;;;;;;5048792;28;20124;-74
2022/03/15 00:22:06;;;;;;;11.73;6.22;;;;;;;;;;5049036;28;20035;-74
2022/03/15 00:24:33;;;;;;;16.60;8.88;;;;;;;;;;5048235;28;20048;-74
2022/03/15 00:26:59;;;;;;;12.95;7.00;;;;;;;;;;5052452;28;20048;-74
2022/03/15 00:29:25;;;;;;;7.95;5.13;;;;;;;;;;5048091;28;20079;-74
2022/03/15 00:31:51;;;;;;;11.45;6.13;;;;;;;;;;5048338;28;20428;-74
2022/03/15 00:34:17;;;;;;;8.98;4.45;;;;;;;;;;5051647;28;20056;-74
2022/03/15 00:36:44;;;;;;;10.27;5.40;;;;;;;;;;5059851;28;20068;-74
2022/03/15 00:39:10;;;;;;;8.23;4.65;;;;;;;;;;5054938;28;20557;-74
2022/03/15 00:41:36;;;;;;;9.88;4.53;;;;;;;;;;5048900;28;20142;-73
2022/03/15 00:44:02;;;;;;;8.80;6.07;;;;;;;;;;5059988;28;20504;-73
2022/03/15 00:46:28;;;;;;;12.88;7.05;;;;;;;;;;5062623;28;20562;-73
2022/03/15 00:48:54;;;;;;;8.25;5.43;;;;;;;;;;5051888;28;20070;-74
2022/03/15 00:51:20;;;;;;;12.82;7.28;;;;;;;;;;5058283;28;20883;-74
2022/03/15 00:53:47;;;;;;;11.82;6.10;;;;;;;;;;5053868;28;20111;-73
2022/03/15 00:56:13;;;;;;;18.00;10.50;;;;;;;;;;5048428;28;20028;-73
2022/03/15 00:58:39;;;;;;;12.18;6.50;;;;;;;;;;5050840;28;20033;-74
2022/03/15 01:01:05;;;;;;;11.30;6.20;;;;;;;;;;5047672;28;20079;-74
2022/03/15 01:03:31;;;;;;;8.52;5.60;;;;;;;;;;5028373;28;20107;-73
2022/03/15 01:05:58;;;;;;;8.95;5.40;;;;;;;;;;5045751;28;20028;-73
2022/03/15 01:08:24;;;;;;;10.15;5.47;;;;;;;;;;5055556;28;20037;-74
2022/03/15 01:10:51;;;;;;;10.65;5.65;;;;;;;;;;5040063;28;20033;-73
2022/03/15 01:13:17;;;;;;;10.07;6.40;;;;;;;;;;5047366;28;20440;-74
2022/03/15 01:15:44;;;;;;;8.35;5.55;;;;;;;;;;5047195;28;20036;-74
2022/03/15 01:18:11;;;;;;;12.88;7.95;;;;;;;;;;5051613;28;20028;-74
2022/03/15 01:20:41;;;;;;;19.52;9.80;;;;;;;;;;5067474;28;20032;-73
2022/03/15 01:23:07;;;;;;;14.30;8.07;;;;;;;;;;5056142;28;20061;-73
2022/03/15 01:25:33;;;;;;;13.02;7.10;;;;;;;;;;5041727;28;20061;-74
2022/03/15 01:27:59;;;;;;;11.80;6.95;;;;;;;;;;5042472;28;20033;-73
2022/03/15 01:30:25;;;;;;;9.95;5.63;;;;;;;;;;5056457;28;20040;-73
2022/03/15 01:32:51;;;;;;;10.18;5.28;;;;;;;;;;5052485;28;20036;-74
2022/03/15 01:35:19;;;;;;;12.60;5.95;;;;;;;;;;5059415;28;20436;-74
2022/03/15 01:37:45;;;;;;;10.60;6.30;;;;;;;;;;5067117;28;20422;-74
2022/03/15 01:40:11;;;;;;;9.07;5.85;;;;;;;;;;5056147;28;20032;-73
2022/03/15 01:42:37;;;;;;;11.73;6.90;;;;;;;;;;5056480;28;20043;-74
2022/03/15 01:45:04;;;;;;;13.57;6.55;;;;;;;;;;5050816;28;20033;-74
2022/03/15 01:47:30;;;;;;;11.13;6.88;;;;;;;;;;5052026;28;20144;-74
2022/03/15 01:49:56;;;;;;;11.95;6.90;;;;;;;;;;5061649;28;20530;-74
2022/03/15 01:52:23;;;;;;;14.00;7.55;;;;;;;;;;5066131;28;20077;-73
2022/03/15 01:54:50;;;;;;;13.20;7.88;;;;;;;;;;5052874;28;20104;-73
2022/03/15 01:57:16;;;;;;;16.25;9.38;;;;;;;;;;5051006;28;20086;-74
2022/03/15 01:59:43;;;;;;;14.23;8.63;;;;;;;;;;5051402;28;20691;-74
2022/03/15 02:02:09;;;;;;;12.15;7.28;;;;;;;;;;5049811;28;20120;-74
2022/03/15 02:04:39;;;;;;;14.85;8.55;;;;;;;;;;5050390;28;20231;-74
2022/03/15 02:07:08;;;;;;;11.32;7.63;;;;;;;;;;5051521;28;20325;-74
2022/03/15 02:09:35;;;;;;;13.55;8.60;;;;;;;;;;5055509;28;20674;-74
2022/03/15 02:12:01;;;;;;;13.57;9.70;;;;;;;;;;5061765;28;20353;-73
2022/03/15 02:14:27;;;;;;;14.07;9.32;;;;;;;;;;5050233;28;20040;-74
2022/03/15 02:16:53;;;;;;;13.73;9.90;;;;;;;;;;5058794;28;20383;-73
2022/03/15 02:19:19;;;;;;;17.63;10.75;;;;;;;;;;5056911;28;20036;-73
2022/03/15 02:21:45;;;;;;;14.20;9.73;;;;;;;;;;5049109;28;20036;-73
2022/03/15 02:24:11;;;;;;;15.52;9.30;;;;;;;;;;5056192;28;20033;-74
2022/03/15 02:26:37;;;;;;;12.20;8.48;;;;;;;;;;5051941;28;20048;-73
2022/03/15 02:29:03;;;;;;;11.20;7.63;;;;;;;;;;5049647;28;20048;-73
2022/03/15 02:31:29;;;;;;;12.73;6.85;;;;;;;;;;5063675;28;20055;-73
2022/03/15 02:33:55;;;;;;;12.52;6.75;;;;;;;;;;5051962;28;20040;-74
2022/03/15 02:36:21;;;;;;;12.30;7.65;;;;;;;;;;5057589;28;20033;-73
2022/03/15 02:38:48;;;;;;;15.85;8.75;;;;;;;;;;5058791;28;20040;-73
2022/03/15 02:41:14;;;;;;;15.32;8.57;;;;;;;;;;5055881;28;20029;-73
2022/03/15 02:43:41;;;;;;;18.50;10.13;;;;;;;;;;5059381;28;20111;-73
2022/03/15 02:46:10;;;;;;;20.38;11.93;;;;;;;;;;5065445;28;20032;-73
2022/03/15 02:48:36;;;;;;;14.68;10.13;;;;;;;;;;5053344;28;20037;-73
2022/03/15 02:51:06;;;;;;;16.67;12.07;;;;;;;;;;5050676;28;20052;-74
2022/03/15 02:53:32;;;;;;;16.95;12.13;;;;;;;;;;5061422;28;20930;-73
2022/03/15 02:55:59;;;;;;;18.85;12.52;;;;;;;;;;5043992;28;20037;-74
2022/03/15 02:58:25;;;;;;;23.05;12.10;;;;;;;;;;5054618;28;20070;-73
2022/03/15 03:00:51;;;;;;;20.60;11.85;;;;;;;;;;5053654;28;20033;-73
2022/03/15 03:03:17;;;;;;;20.65;15.43;;;;;;;;;;5052452;28;20095;-74
2022/03/15 03:05:43;;;;;;;21.15;14.73;;;;;;;;;;5040482;28;20067;-73
2022/03/15 03:08:10;;;;;;;19.63;12.93;;;;;;;;;;5055902;28;20036;-73
2022/03/15 03:10:36;;;;;;;21.80;15.40;;;;;;;;;;5029827;28;20037;-73
2022/03/15 03:13:03;;;;;;;24.23;16.98;;;;;;;;;;5050814;28;20071;-73
2022/03/15 03:15:32;;;;;;;17.98;13.38;;;;;;;;;;5054243;28;20484;-74
2022/03/15 03:17:58;;;;;;;18.65;12.73;;;;;;;;;;5053527;28;20041;-73
2022/03/15 03:20:27;;;;;;;21.35;13.95;;;;;;;;;;5057377;28;20128;-73
2022/03/15 03:22:54;;;;;;;21.02;13.60;;;;;;;;;;5049904;28;20032;-74
2022/03/15 03:25:20;;;;;;;19.38;12.43;;;;;;;;;;5042097;28;20052;-74
2022/03/15 03:27:49;;;;;;;19.25;14.20;;;;;;;;;;5048394;28;20116;-73
2022/03/15 03:30:15;;;;;;;20.05;14.48;;;;;;;;;;5056220;28;20044;-74
2022/03/15 03:32:41;;;;;;;19.05;13.35;;;;;;;;;;5048586;28;20059;-74
2022/03/15 03:35:08;;;;;;;20.60;12.93;;;;;;;;;;5049195;28;20033;-74
2022/03/15 03:37:34;;;;;;;25.52;14.98;;;;;;;;;;5048370;28;20039;-73
2022/03/15 03:40:06;;;;;;;19.63;13.85;;;;;;;;;;5031630;28;20124;-73
2022/03/15 03:42:32;;;;;;;23.52;17.83;;;;;;;;;;5057068;28;20036;-74
2022/03/15 03:44:58;;;;;;;25.38;16.67;;;;;;;;;;5051339;28;20043;-74
2022/03/15 03:47:24;;;;;;;21.42;16.00;;;;;;;;;;5049246;28;20033;-73
2022/03/15 03:49:50;;;;;;;21.15;16.13;;;;;;;;;;5036226;28;20029;-74
2022/03/15 03:52:16;;;;;;;21.25;15.15;;;;;;;;;;5053278;28;20039;-73
2022/03/15 03:54:42;;;;;;;23.38;17.40;;;;;;;;;;5056426;28;20078;-74
2022/03/15 03:57:08;;;;;;;27.55;20.60;;;;;;;;;;5069250;28;20028;-74
2022/03/15 03:59:34;;;;;;;20.40;14.43;;;;;;;;;;5053722;28;20533;-74
2022/03/15 04:02:00;;;;;;;23.92;17.27;;;;;;;;;;5052635;28;20040;-74
2022/03/15 04:04:28;;;;;;;18.80;13.75;;;;;;;;;;5048203;28;20037;-73
2022/03/15 04:06:55;;;;;;;23.42;16.58;;;;;;;;;;5047286;28;20041;-74
2022/03/15 04:09:21;;;;;;;20.25;15.43;;;;;;;;;;5048592;28;20033;-74
2022/03/15 04:11:49;;;;;;;21.92;13.48;;;;;;;;;;5046637;28;20025;-74
2022/03/15 04:14:15;;;;;;;20.08;12.77;;;;;;;;;;5060040;28;20149;-73
2022/03/15 04:16:42;;;;;;;15.27;11.07;;;;;;;;;;5049306;28;20068;-74
2022/03/15 04:19:08;;;;;;;18.20;13.88;;;;;;;;;;5044285;28;20032;-74
2022/03/15 04:21:34;;;;;;;21.92;15.88;;;;;;;;;;5048745;28;20036;-73
2022/03/15 04:24:00;;;;;;;24.55;15.00;;;;;;;;;;5048497;28;20036;-73
2022/03/15 04:26:27;;;;;;;21.92;14.07;;;;;;;;;;5047903;28;20037;-74
2022/03/15 04:28:53;;;;;;;20.75;14.90;;;;;;;;;;5050190;28;20037;-73
2022/03/15 04:31:21;;;;;;;19.30;13.65;;;;;;;;;;5052418;28;20029;-74
2022/03/15 04:33:47;;;;;;;21.33;15.45;;;;;;;;;;5048616;28;20055;-74
2022/03/15 04:36:13;;;;;;;22.13;15.93;;;;;;;;;;5058406;28;20032;-73
2022/03/15 04:38:40;;;;;;;25.52;19.13;;;;;;;;;;5048418;28;20029;-73
2022/03/15 04:41:06;;;;;;;14.98;8.43;;;;;;;;;;5047689;28;20040;-73
2022/03/15 04:43:32;;;;;;;12.13;9.27;;;;;;;;;;5042612;28;20222;-73
2022/03/15 04:45:59;;;;;;;20.23;13.85;;;;;;;;;;5059566;28;20051;-74
2022/03/15 04:48:25;;;;;;;20.23;14.38;;;;;;;;;;5059717;28;20086;-73
2022/03/15 04:50:51;;;;;;;14.60;10.68;;;;;;;;;;5053448;28;20456;-73
2022/03/15 04:53:18;;;;;;;20.83;13.68;;;;;;;;;;5057377;28;20029;-73
2022/03/15 04:55:44;;;;;;;18.40;14.93;;;;;;;;;;5040702;28;20025;-74
2022/03/15 04:58:10;;;;;;;12.38;9.23;;;;;;;;;;5055156;28;20620;-74
2022/03/15 05:00:36;;;;;;;13.05;10.00;;;;;;;;;;5048783;28;20120;-73
2022/03/15 05:03:02;;;;;;;8.20;5.30;;;;;;;;;;5056939;28;20052;-73
2022/03/15 05:05:28;;;;;;;7.05;4.32;;;;;;;;;;5052551;28;20082;-73
2022/03/15 05:07:55;;;;;;;5.53;3.05;;;;;;;;;;5059083;28;20531;-74
2022/03/15 05:13:06;;;;;;;17.40;13.52;;;;;;;;;;5047050;28;20044;-73
2022/03/15 05:15:33;;;;;;;18.42;13.38;;;;;;;;;;5030932;28;20078;-73
2022/03/15 05:18:01;;;;;;;6.10;3.42;;;;;;;;;;5048392;28;20040;-73
2022/03/15 05:20:29;;;;;;;10.27;3.03;;;;;;;;;;5050944;28;20063;-73
2022/03/15 05:22:55;;;;;;;8.68;3.25;;;;;;;;;;5055788;28;20040;-73
2022/03/15 05:25:21;;;;;;;6.63;2.20;;;;;;;;;;5055264;28;20033;-73
2022/03/15 05:27:47;;;;;;;4.57;2.20;;;;;;;;;;5060212;28;20413;-73
2022/03/15 05:30:13;;;;;;;3.63;1.80;;;;;;;;;;5059929;28;20496;-73
2022/03/15 05:32:39;;;;;;;4.93;2.28;;;;;;;;;;5062594;28;20048;-73
2022/03/15 05:35:06;;;;;;;4.82;2.17;;;;;;;;;;5052994;28;20580;-73
2022/03/15 05:37:32;;;;;;;6.90;1.55;;;;;;;;;;5047356;28;20151;-73
2022/03/15 05:39:58;;;;;;;3.90;1.55;;;;;;;;;;5058291;28;20041;-73
2022/03/15 05:42:24;;;;;;;2.92;1.10;;;;;;;;;;5065732;28;20032;-73
2022/03/15 05:44:50;;;;;;;4.07;1.30;;;;;;;;;;5062871;28;20033;-73
2022/03/15 05:47:17;;;;;;;2.90;1.10;;;;;;;;;;5058010;28;20053;-73
2022/03/15 05:49:43;;;;;;;4.45;1.20;;;;;;;;;;5058327;28;20812;-73
2022/03/15 05:52:09;;;;;;;2.55;1.02;;;;;;;;;;5051445;28;20036;-73
2022/03/15 05:54:35;;;;;;;2.63;1.17;;;;;;;;;;5051254;28;20040;-73
2022/03/15 05:57:02;;;;;;;3.80;1.42;;;;;;;;;;5061782;28;20033;-73
2022/03/15 05:59:28;;;;;;;5.70;1.50;;;;;;;;;;5061394;28;20033;-73
2022/03/15 06:01:54;;;;;;;3.15;1.00;;;;;;;;;;5049428;28;20071;-73
2022/03/15 06:04:24;;;;;;;3.70;1.05;;;;;;;;;;5048147;28;20474;-74
2022/03/15 06:06:50;;;;;;;2.63;0.80;;;;;;;;;;5053241;28;20387;-73
2022/03/15 06:09:16;;;;;;;3.47;0.85;;;;;;;;;;5061632;28;20768;-73
2022/03/15 06:11:42;;;;;;;2.33;0.75;;;;;;;;;;5054243;28;20032;-73
2022/03/15 06:14:08;;;;;;;1.10;0.52;;;;;;;;;;5060714;28;20047;-73
2022/03/15 06:16:34;;;;;;;2.85;0.80;;;;;;;;;;5046743;28;20090;-73
2022/03/15 06:19:00;;;;;;;4.93;0.60;;;;;;;;;;5044658;28;20025;-73
2022/03/15 06:21:26;;;;;;;3.17;0.70;;;;;;;;;;5051955;28;20029;-73
2022/03/15 06:23:52;;;;;;;3.00;0.77;;;;;;;;;;5051303;28;20079;-73
2022/03/15 06:26:20;;;;;;;1.88;0.60;;;;;;;;;;5045796;28;20507;-73
2022/03/15 06:28:46;;;;;;;4.68;0.80;;;;;;;;;;5056513;28;20373;-72
2022/03/15 06:31:14;;;;;;;3.95;0.90;;;;;;;;;;5049315;28;20071;-74
2022/03/15 06:33:40;;;;;;;2.83;0.90;;;;;;;;;;5049544;28;20029;-73
2022/03/15 06:36:11;;;;;;;5.03;0.93;;;;;;;;;;5049184;28;20029;-73
2022/03/15 06:38:40;;;;;;;4.13;0.83;;;;;;;;;;5048320;28;20043;-73
2022/03/15 06:41:07;;;;;;;2.33;0.63;;;;;;;;;;5062026;28;20483;-73
2022/03/15 06:43:34;;;;;;;2.17;0.70;;;;;;;;;;5065904;28;20029;-73
2022/03/15 06:46:01;;;;;;;2.47;0.88;;;;;;;;;;5041000;28;20029;-73
2022/03/15 06:48:27;;;;;;;5.65;1.02;;;;;;;;;;5051898;28;20039;-73
2022/03/15 06:50:54;;;;;;;6.65;3.08;;;;;;;;;;5049171;28;20056;-73
2022/03/15 06:53:20;;;;;;;4.63;0.88;;;;;;;;;;5048279;28;20056;-74
2022/03/15 06:55:46;;;;;;;2.40;0.73;;;;;;;;;;5059367;28;20063;-73
2022/03/15 06:58:12;;;;;;;2.95;0.50;;;;;;;;;;5053768;28;20020;-73
2022/03/15 07:00:38;;;;;;;2.38;0.93;;;;;;;;;;5045648;28;20413;-73
2022/03/15 07:03:05;;;;;;;5.18;1.30;;;;;;;;;;5053319;28;20048;-74
2022/03/15 07:05:31;;;;;;;2.70;1.30;;;;;;;;;;5050115;28;20598;-73
2022/03/15 07:07:57;;;;;;;7.10;2.72;;;;;;;;;;5048522;28;20029;-73
2022/03/15 07:10:23;;;;;;;10.93;4.15;;;;;;;;;;5048060;28;20104;-73
2022/03/15 07:12:49;;;;;;;6.70;3.17;;;;;;;;;;5060086;28;20043;-73
2022/03/15 07:15:17;;;;;;;8.23;3.47;;;;;;;;;;5051055;28;20028;-73
2022/03/15 07:17:52;;;;;;;6.45;2.70;;;;;;;;;;5047485;28;20040;-73
2022/03/15 07:20:19;;;;;;;3.92;2.20;;;;;;;;;;5048210;28;20045;-74
2022/03/15 07:22:45;;;;;;;5.05;1.77;;;;;;;;;;5051666;28;20092;-73
2022/03/15 07:25:11;;;;;;;6.80;1.80;;;;;;;;;;5049662;28;20041;-73
2022/03/15 07:27:38;;;;;;;2.80;0.70;;;;;;;;;;5053682;28;20032;-73
2022/03/15 07:30:04;;;;;;;1.95;0.50;;;;;;;;;;5052155;28;20109;-73
2022/03/15 07:32:30;;;;;;;2.78;0.77;;;;;;;;;;5052504;28;20024;-73
2022/03/15 07:34:56;;;;;;;2.55;0.70;;;;;;;;;;5051676;28;20044;-73
2022/03/15 07:37:22;;;;;;;2.20;0.70;;;;;;;;;;5048039;28;20029;-73
2022/03/15 07:39:48;;;;;;;8.80;1.60;;;;;;;;;;5051779;28;20103;-73
2022/03/15 07:42:15;;;;;;;6.60;2.58;;;;;;;;;;5045147;28;20053;-74
2022/03/15 07:44:42;;;;;;;8.07;2.50;;;;;;;;;;5046697;28;20044;-73
2022/03/15 07:47:10;;;;;;;5.28;2.17;;;;;;;;;;5048042;28;20532;-73
2022/03/15 07:49:36;;;;;;;6.75;1.73;;;;;;;;;;5054636;28;20036;-73
2022/03/15 07:52:03;;;;;;;5.38;1.90;;;;;;;;;;5046704;28;20395;-73
2022/03/15 07:54:29;;;;;;;5.70;2.03;;;;;;;;;;5047809;28;20111;-73
2022/03/15 07:56:55;;;;;;;4.22;1.90;;;;;;;;;;5049865;28;20057;-73
2022/03/15 07:59:22;;;;;;;4.88;1.90;;;;;;;;;;5052294;28;20043;-73
2022/03/15 08:01:48;;;;;;;7.28;2.30;;;;;;;;;;5048528;28;20112;-74
2022/03/15 08:04:14;;;;;;;6.90;2.33;;;;;;;;;;5047222;28;20144;-73
2022/03/15 08:06:40;;;;;;;5.15;1.73;;;;;;;;;;5056576;28;20581;-73
2022/03/15 08:09:07;;;;;;;5.50;1.88;;;;;;;;;;5046280;28;20583;-73
2022/03/15 08:11:33;;;;;;;7.60;1.70;;;;;;;;;;5054470;28;20060;-73
2022/03/15 08:13:59;;;;;;;5.22;2.20;;;;;;;;;;5052157;28;20384;-74
2022/03/15 08:16:26;;;;;;;5.20;1.83;;;;;;;;;;5051738;28;20064;-73
2022/03/15 08:18:53;;;;;;;6.75;2.60;;;;;;;;;;5061179;28;20090;-73
2022/03/15 08:21:20;;;;;;;4.47;1.45;;;;;;;;;;5047809;28;20112;-73
2022/03/15 08:23:46;;;;;;;9.20;2.72;;;;;;;;;;5048651;28;20536;-73
2022/03/15 08:26:13;;;;;;;8.63;3.15;;;;;;;;;;5050443;28;20100;-73
2022/03/15 08:28:39;;;;;;;6.88;3.10;;;;;;;;;;5051047;28;20037;-73
2022/03/15 08:31:05;;;;;;;6.80;3.75;;;;;;;;;;5049553;28;20029;-72
2022/03/15 08:33:31;;;;;;;9.57;3.67;;;;;;;;;;5051428;28;20029;-73
2022/03/15 08:35:57;;;;;;;8.25;3.90;;;;;;;;;;5053976;28;20836;-73
2022/03/15 08:38:23;;;;;;;9.35;3.33;;;;;;;;;;5063364;28;20041;-73
2022/03/15 08:40:49;;;;;;;7.22;2.88;;;;;;;;;;5048962;28;20048;-73
2022/03/15 08:43:15;;;;;;;8.88;3.00;;;;;;;;;;5056207;28;20033;-73
2022/03/15 08:45:42;;;;;;;7.82;3.45;;;;;;;;;;5049099;28;20041;-73
2022/03/15 08:48:08;;;;;;;6.85;2.42;;;;;;;;;;5052521;28;20102;-73
2022/03/15 08:50:34;;;;;;;5.13;2.08;;;;;;;;;;5044976;28;20036;-73
2022/03/15 08:53:00;;;;;;;6.20;2.38;;;;;;;;;;5058994;28;20031;-73
2022/03/15 08:55:27;;;;;;;9.98;4.05;;;;;;;;;;5053005;28;20525;-73
2022/03/15 08:57:53;;;;;;;8.57;3.83;;;;;;;;;;5050710;28;20107;-73
2022/03/15 09:00:20;;;;;;;7.57;4.60;;;;;;;;;;5051041;28;20033;-73
2022/03/15 09:02:46;;;;;;;8.02;4.22;;;;;;;;;;5050922;28;20389;-73
2022/03/15 09:05:12;;;;;;;9.77;4.57;;;;;;;;;;5062676;28;20044;-72
2022/03/15 09:07:40;;;;;;;11.55;6.55;;;;;;;;;;5055476;28;20032;-72
2022/03/15 09:10:07;;;;;;;15.93;7.10;;;;;;;;;;5051935;28;20146;-72
2022/03/15 09:12:34;;;;;;;12.93;7.70;;;;;;;;;;5052804;28;20464;-73
2022/03/15 09:15:00;;;;;;;12.98;7.78;;;;;;;;;;5052301;28;20415;-73
2022/03/15 09:17:26;;;;;;;15.20;8.05;;;;;;;;;;5055714;28;20046;-72
2022/03/15 09:19:52;;;;;;;11.35;6.85;;;;;;;;;;5059260;28;20037;-73
2022/03/15 09:22:19;;;;;;;14.68;7.05;;;;;;;;;;5050466;28;20025;-72
2022/03/15 09:24:45;;;;;;;13.88;7.80;;;;;;;;;;5066913;28;20825;-73
2022/03/15 09:27:12;;;;;;;17.80;8.25;;;;;;;;;;5063057;28;20578;-72
2022/03/15 09:29:38;;;;;;;19.00;9.90;;;;;;;;;;5053613;28;20120;-72
2022/03/15 09:32:05;;;;;;;19.70;11.52;;;;;;;;;;5050809;28;20098;-73
2022/03/15 09:34:31;;;;;;;22.70;12.32;;;;;;;;;;5057334;28;20044;-72
2022/03/15 09:37:00;;;;;;;16.95;11.32;;;;;;;;;;5056835;28;20028;-73
2022/03/15 09:39:26;;;;;;;18.73;10.77;;;;;;;;;;5052574;28;20044;-73
2022/03/15 09:41:55;;;;;;;22.27;13.70;;;;;;;;;;5054268;28;20032;-73
2022/03/15 09:44:24;;;;;;;18.23;12.15;;;;;;;;;;5060736;28;20037;-73
2022/03/15 09:46:51;;;;;;;20.85;13.00;;;;;;;;;;5054628;28;20413;-72
2022/03/15 09:49:19;;;;;;;19.10;12.60;;;;;;;;;;5057313;28;20039;-72
2022/03/15 09:51:46;;;;;;;24.63;15.05;;;;;;;;;;5059874;28;20020;-73
2022/03/15 09:54:13;;;;;;;24.75;15.80;;;;;;;;;;5058575;28;20039;-72
2022/03/15 09:56:39;;;;;;;22.40;15.18;;;;;;;;;;5064559;28;20103;-73
2022/03/15 09:59:12;;;;;;;24.35;15.05;;;;;;;;;;5053001;28;20503;-73
2022/03/15 10:01:40;;;;;;;20.65;15.02;;;;;;;;;;5062959;28;20692;-72
2022/03/15 10:04:07;;;;;;;23.33;15.88;;;;;;;;;;5058350;28;20052;-73
2022/03/15 10:06:33;;;;;;;20.05;13.95;;;;;;;;;;5053258;28;20662;-73
2022/03/15 10:08:59;;;;;;;22.85;12.95;;;;;;;;;;5059654;28;20395;-73
2022/03/15 10:11:25;;;;;;;16.58;11.93;;;;;;;;;;5057810;28;20379;-73
2022/03/15 10:13:51;;;;;;;15.00;9.02;;;;;;;;;;5059384;28;20029;-73
2022/03/15 10:16:17;;;;;;;18.88;9.23;;;;;;;;;;5054927;28;20032;-73
2022/03/15 10:18:53;;;;;;;15.55;8.48;;;;;;;;;;5051265;28;20052;-72
2022/03/15 10:21:21;;;;;;;18.42;8.60;;;;;;;;;;5052572;28;20040;-73
2022/03/15 10:23:47;;;;;;;13.75;7.10;;;;;;;;;;5054973;28;20103;-73
2022/03/15 10:26:23;;;;;;;15.45;6.32;;;;;;;;;;5055649;28;20057;-73
2022/03/15 10:28:49;;;;;;;17.95;7.57;;;;;;;;;;5066763;28;20048;-73
2022/03/15 10:31:16;;;;;;;18.42;8.73;;;;;;;;;;5057145;28;20029;-73
2022/03/15 10:33:43;;;;;;;18.08;9.02;;;;;;;;;;5060108;28;20044;-72
2022/03/15 10:36:18;;;;;;;14.02;8.35;;;;;;;;;;5059897;28;20471;-73
2022/03/15 10:38:48;;;;;;;16.48;8.80;;;;;;;;;;5059836;28;20029;-72
2022/03/15 10:41:15;;;;;;;15.68;7.18;;;;;;;;;;5051485;28;20120;-72
2022/03/15 10:43:41;;;;;;;14.15;5.50;;;;;;;;;;5059692;28;20499;-72
2022/03/15 10:46:09;;;;;;;22.15;7.68;;;;;;;;;;5056587;28;20734;-73
2022/03/15 10:48:36;;;;;;;16.92;8.60;;;;;;;;;;5043420;28;20040;-73
2022/03/15 10:51:02;;;;;;;15.35;8.85;;;;;;;;;;5068313;28;20068;-73
2022/03/15 10:53:36;;;;;;;15.13;9.38;;;;;;;;;;5052565;28;20048;-73
2022/03/15 10:56:13;;;;;;;20.40;11.27;;;;;;;;;;5058133;28;20039;-72
2022/03/15 10:58:45;;;;;;;23.58;12.65;;;;;;;;;;5048941;28;20605;-73
2022/03/15 11:01:12;;;;;;;20.33;10.90;;;;;;;;;;5053950;28;20024;-73
2022/03/15 11:03:38;;;;;;;19.50;12.52;;;;;;;;;;5061034;28;20060;-73
2022/03/15 11:06:08;;;;;;;19.67;13.00;;;;;;;;;;5063668;28;20032;-73
2022/03/15 11:08:36;;;;;;;19.85;11.93;;;;;;;;;;5046081;28;20036;-72
2022/03/15 11:11:06;;;;;;;13.23;10.02;;;;;;;;;;5053348;28;20778;-73
2022/03/15 11:13:32;;;;;;;16.58;10.32;;;;;;;;;;5065399;28;20044;-73
2022/03/15 11:15:59;;;;;;;17.13;10.40;;;;;;;;;;5042018;28;20021;-73
2022/03/15 11:18:30;;;;;;;18.65;10.80;;;;;;;;;;5046506;28;20068;-72
2022/03/15 11:20:58;;;;;;;14.98;9.20;;;;;;;;;;5058024;28;20033;-72
2022/03/15 11:23:25;;;;;;;13.05;7.38;;;;;;;;;;5057021;28;20090;-73
2022/03/15 11:26:06;;;;;;;12.32;7.57;;;;;;;;;;5059494;28;20025;-72
2022/03/15 11:28:33;;;;;;;15.20;7.72;;;;;;;;;;5049584;28;20040;-73
2022/03/15 11:31:00;;;;;;;11.65;7.00;;;;;;;;;;5052170;28;20032;-73
2022/03/15 11:33:28;;;;;;;14.15;7.75;;;;;;;;;;5048656;28;20061;-73
2022/03/15 11:35:55;;;;;;;19.13;6.85;;;;;;;;;;5053470;28;20028;-73
2022/03/15 11:38:21;;;;;;;17.63;7.70;;;;;;;;;;5052602;28;20037;-73
2022/03/15 11:40:54;;;;;;;14.65;6.95;;;;;;;;;;5052197;28;20037;-73
2022/03/15 11:43:33;;;;;;;17.27;7.10;;;;;;;;;;5059805;28;20029;-72
2022/03/15 11:46:12;;;;;;;12.50;7.15;;;;;;;;;;5058169;28;20047;-72
2022/03/15 11:48:44;;;;;;;14.50;7.07;;;;;;;;;;5050054;28;20041;-73
2022/03/15 11:51:31;;;;;;;23.58;7.97;;;;;;;;;;5052844;28;20029;-72
2022/03/15 11:53:57;;;;;;;16.63;7.95;;;;;;;;;;5047904;28;20083;-72
2022/03/15 11:56:46;;;;;;;14.85;6.60;;;;;;;;;;5053450;28;20463;-72
2022/03/15 11:59:13;;;;;;;11.00;6.03;;;;;;;;;;5018988;28;20681;-73
2022/03/15 12:01:49;;;;;;;13.13;5.20;;;;;;;;;;5050957;28;20410;-73
2022/03/15 12:04:18;;;;;;;9.65;4.40;;;;;;;;;;5050647;28;20107;-72
2022/03/15 12:06:50;;;;;;;10.60;4.22;;;;;;;;;;5042359;28;20033;-72
2022/03/15 12:09:20;;;;;;;11.55;4.57;;;;;;;;;;5052426;28;20040;-73
2022/03/15 12:11:46;;;;;;;19.33;7.32;;;;;;;;;;5053337;28;20056;-73
2022/03/15 12:14:17;;;;;;;14.82;7.13;;;;;;;;;;5054521;28;20134;-73
2022/03/15 12:16:50;;;;;;;17.05;6.50;;;;;;;;;;5053380;28;20025;-73
2022/03/15 12:19:34;;;;;;;15.00;6.80;;;;;;;;;;5047695;28;20047;-73
2022/03/15 12:22:02;;;;;;;14.95;6.70;;;;;;;;;;5047310;28;20399;-73
2022/03/15 12:24:38;;;;;;;15.50;8.13;;;;;;;;;;5051228;28;20036;-73
2022/03/15 12:27:18;;;;;;;14.02;7.20;;;;;;;;;;5052637;28;20095;-72
2022/03/15 12:29:51;;;;;;;14.02;6.85;;;;;;;;;;5059546;28;20578;-73
2022/03/15 12:32:20;;;;;;;9.85;5.53;;;;;;;;;;5056126;28;20128;-73
2022/03/15 12:34:57;;;;;;;15.13;5.82;;;;;;;;;;5057456;28;20066;-72
2022/03/15 12:37:30;;;;;;;16.58;5.15;;;;;;;;;;5043950;28;20028;-73
2022/03/15 12:39:57;;;;;;;13.98;5.00;;;;;;;;;;5052338;28;20029;-72
2022/03/15 12:42:24;;;;;;;13.68;4.68;;;;;;;;;;5051137;28;20044;-73
2022/03/15 12:44:56;;;;;;;10.40;4.32;;;;;;;;;;5055009;28;20037;-73
2022/03/15 12:47:22;;;;;;;14.65;4.13;;;;;;;;;;5054161;28;20036;-73
2022/03/15 12:50:07;;;;;;;10.40;3.70;;;;;;;;;;5056942;28;20029;-72
2022/03/15 12:52:38;;;;;;;13.00;3.33;;;;;;;;;;5044106;28;20033;-73
2022/03/15 12:55:04;;;;;;;7.63;3.20;;;;;;;;;;5058530;28;20028;-72
2022/03/15 12:57:32;;;;;;;13.98;3.30;;;;;;;;;;5053715;28;20083;-73
2022/03/15 12:59:58;;;;;;;11.13;3.53;;;;;;;;;;5052536;28;20369;-73
2022/03/15 13:02:24;;;;;;;9.18;4.00;;;;;;;;;;5050705;28;20076;-72
2022/03/15 13:04:50;;;;;;;11.50;6.28;;;;;;;;;;5049593;28;20044;-72
2022/03/15 13:07:28;;;;;;;11.30;4.53;;;;;;;;;;5050313;28;20041;-72
2022/03/15 13:09:57;;;;;;;9.43;4.57;;;;;;;;;;5055738;28;20029;-72
2022/03/15 13:12:31;;;;;;;8.93;3.92;;;;;;;;;;5054196;28;20051;-72
2022/03/15 13:14:59;;;;;;;8.48;4.18;;;;;;;;;;5054213;28;20028;-72
2022/03/15 13:17:26;;;;;;;15.43;3.95;;;;;;;;;;5060629;28;20078;-72
2022/03/15 13:19:52;;;;;;;14.07;3.97;;;;;;;;;;5053716;28;20048;-72
2022/03/15 13:22:27;;;;;;;16.35;5.38;;;;;;;;;;5052917;28;20040;-72
2022/03/15 13:24:54;;;;;;;14.73;5.53;;;;;;;;;;5055942;28;20033;-72
2022/03/15 13:27:20;;;;;;;10.32;4.20;;;;;;;;;;5051099;28;20032;-72
2022/03/15 13:29:46;;;;;;;13.68;4.35;;;;;;;;;;5055833;28;20423;-72
2022/03/15 13:32:19;;;;;;;16.42;5.30;;;;;;;;;;5047706;28;20084;-72
2022/03/15 13:34:47;;;;;;;10.70;4.30;;;;;;;;;;5054276;28;20025;-73
2022/03/15 13:37:13;;;;;;;9.35;4.82;;;;;;;;;;5047396;28;20025;-73
2022/03/15 13:39:39;;;;;;;12.02;4.15;;;;;;;;;;5053230;28;20108;-73
2022/03/15 13:42:08;;;;;;;11.15;3.80;;;;;;;;;;5056845;28;20036;-72
2022/03/15 13:44:37;;;;;;;12.57;4.57;;;;;;;;;;5054110;28;20029;-72
2022/03/15 13:47:15;;;;;;;12.90;4.95;;;;;;;;;;5052418;28;20029;-72
2022/03/15 13:49:42;;;;;;;10.30;4.85;;;;;;;;;;5051826;28;20064;-72
2022/03/15 13:52:20;;;;;;;12.48;4.63;;;;;;;;;;5045758;28;20033;-72
2022/03/15 13:54:48;;;;;;;12.18;4.70;;;;;;;;;;5044152;28;20051;-72
2022/03/15 13:57:26;;;;;;;12.27;4.47;;;;;;;;;;5051255;28;20114;-72
2022/03/15 14:00:11;;;;;;;13.45;5.20;;;;;;;;;;5050401;28;20051;-72
2022/03/15 14:02:38;;;;;;;15.15;5.10;;;;;;;;;;5053591;28;20064;-72
2022/03/15 14:05:06;;;;;;;19.83;5.32;;;;;;;;;;5058846;28;20115;-72
2022/03/15 14:07:34;;;;;;;16.27;5.32;;;;;;;;;;5054706;28;20055;-73
2022/03/15 14:10:20;;;;;;;15.25;4.90;;;;;;;;;;5047478;28;20040;-72
2022/03/15 14:12:49;;;;;;;9.98;4.47;;;;;;;;;;5049553;28;20360;-73
2022/03/15 14:15:16;;;;;;;16.42;4.88;;;;;;;;;;5059070;28;20021;-72
2022/03/15 14:17:48;;;;;;;13.95;3.83;;;;;;;;;;5052410;28;20036;-73
2022/03/15 14:20:15;;;;;;;13.73;3.90;;;;;;;;;;5060542;28;20029;-72
2022/03/15 14:22:48;;;;;;;13.43;4.75;;;;;;;;;;5061098;28;20044;-72
2022/03/15 14:25:21;;;;;;;9.98;4.30;;;;;;;;;;5045395;28;20123;-72
2022/03/15 14:27:47;;;;;;;12.75;4.40;;;;;;;;;;5055728;28;20040;-72
2022/03/15 14:30:13;;;;;;;9.38;3.88;;;;;;;;;;5051563;28;20102;-72
2022/03/15 14:32:49;;;;;;;15.20;5.03;;;;;;;;;;5050663;28;20036;-72
2022/03/15 14:35:15;;;;;;;14.35;4.03;;;;;;;;;;5050467;28;20079;-73